Time;durP1;ratioP1;P1;durP2;ratioP2;P2;SDS_P1;SDS_P2;PMS_P1;PMS_P2;Temp;Humidity;BMP_temperature;BMP_pressure;BME280_temperature;BME280_humidity;BME280_pressure;Samples;Min_cycle;Max_cycle;Signal;HPM_P1;HPM_P2
2022/11/15 00:00:46;;;;;;;6.75;4.68;;;7.70;99.90;;;;;;5051674;28;20358;-65
2022/11/15 00:03:22;;;;;;;7.68;4.45;;;7.80;99.90;;;;;;5043376;28;20036;-67
2022/11/15 00:05:49;;;;;;;8.68;5.53;;;7.70;99.90;;;;;;5069684;28;20082;-66
2022/11/15 00:08:14;;;;;;;7.57;5.05;;;7.80;99.90;;;;;;5060248;28;20031;-66
2022/11/15 00:10:40;;;;;;;7.10;4.50;;;7.90;99.90;;;;;;5061849;28;20024;-66
2022/11/15 00:13:11;;;;;;;6.60;3.70;;;7.90;99.90;;;;;;5061075;28;20029;-68
2022/11/15 00:15:39;;;;;;;4.68;3.75;;;7.90;99.90;;;;;;5059885;28;20377;-66
2022/11/15 00:18:06;;;;;;;6.43;4.15;;;7.90;99.90;;;;;;5061552;28;20044;-67
2022/11/15 00:20:33;;;;;;;7.22;4.45;;;8.00;99.90;;;;;;5049850;28;20136;-68
2022/11/15 00:22:59;;;;;;;6.30;3.80;;;8.00;99.90;;;;;;5051766;28;20386;-67
2022/11/15 00:25:25;;;;;;;7.55;4.25;;;8.00;99.90;;;;;;5050885;28;20067;-67
2022/11/15 00:27:54;;;;;;;7.38;3.65;;;8.00;99.90;;;;;;5060882;28;20082;-66
2022/11/15 00:30:20;;;;;;;4.70;3.17;;;8.00;99.90;;;;;;5071345;28;20082;-66
2022/11/15 00:32:45;;;;;;;5.07;3.42;;;8.00;99.90;;;;;;5071365;28;20408;-67
2022/11/15 00:35:11;;;;;;;6.55;3.83;;;8.00;99.90;;;;;;5071540;28;20040;-66
2022/11/15 00:37:36;;;;;;;7.15;4.60;;;8.00;99.90;;;;;;5071571;28;20032;-67
2022/11/15 00:40:02;;;;;;;6.80;4.65;;;7.90;99.90;;;;;;5071749;28;20110;-67
2022/11/15 00:42:27;;;;;;;8.73;3.30;;;7.90;99.90;;;;;;5070668;28;20091;-67
2022/11/15 00:44:53;;;;;;;7.50;4.40;;;8.00;99.90;;;;;;5069803;28;20032;-66
2022/11/15 00:47:18;;;;;;;8.32;4.85;;;8.00;99.90;;;;;;5071919;28;20382;-66
2022/11/15 00:49:44;;;;;;;8.55;4.75;;;8.00;99.90;;;;;;5070295;28;20024;-67
2022/11/15 00:52:10;;;;;;;5.97;4.13;;;7.90;99.90;;;;;;5053763;28;20033;-67
2022/11/15 00:54:35;;;;;;;7.53;4.43;;;7.90;99.90;;;;;;5052325;28;20036;-69
2022/11/15 00:57:01;;;;;;;7.85;4.03;;;7.90;99.90;;;;;;5071670;28;20032;-67
2022/11/15 00:59:26;;;;;;;5.28;3.90;;;7.80;99.90;;;;;;5071445;28;20474;-66
2022/11/15 01:01:52;;;;;;;6.72;3.88;;;7.80;99.90;;;;;;5069131;28;20031;-67
2022/11/15 01:04:17;;;;;;;7.03;3.90;;;7.70;99.90;;;;;;5071560;28;20036;-66
2022/11/15 01:06:43;;;;;;;5.97;3.95;;;7.70;99.90;;;;;;5070271;28;20097;-66
2022/11/15 01:09:09;;;;;;;5.28;3.90;;;7.70;99.90;;;;;;5071640;28;20052;-66
2022/11/15 01:11:34;;;;;;;7.13;3.95;;;7.60;99.90;;;;;;5070299;28;20075;-67
2022/11/15 01:14:00;;;;;;;6.75;4.15;;;7.60;99.90;;;;;;5071000;28;20033;-66
2022/11/15 01:16:25;;;;;;;6.25;4.05;;;7.60;99.90;;;;;;5065715;28;20376;-67
2022/11/15 01:18:51;;;;;;;7.47;3.60;;;7.50;99.90;;;;;;5068839;28;20089;-66
2022/11/15 01:21:18;;;;;;;6.28;3.67;;;7.50;99.90;;;;;;5070646;28;20059;-66
2022/11/15 01:23:44;;;;;;;6.75;4.25;;;7.40;99.90;;;;;;5070230;28;20033;-67
2022/11/15 01:26:13;;;;;;;6.47;3.88;;;7.30;99.90;;;;;;5070488;28;20028;-67
2022/11/15 01:28:41;;;;;;;6.57;4.00;;;7.30;99.90;;;;;;5070541;28;20478;-66
2022/11/15 01:31:12;;;;;;;5.05;3.42;;;7.20;99.90;;;;;;5070598;28;20021;-66
2022/11/15 01:33:38;;;;;;;6.75;3.85;;;7.20;99.90;;;;;;5051458;28;20047;-66
2022/11/15 01:36:09;;;;;;;6.95;3.83;;;7.10;99.90;;;;;;5070992;28;20025;-66
2022/11/15 01:38:35;;;;;;;5.32;3.58;;;7.00;99.90;;;;;;5070539;28;20021;-67
2022/11/15 01:41:01;;;;;;;6.55;3.63;;;6.90;99.90;;;;;;5071784;28;20036;-66
2022/11/15 01:43:33;;;;;;;5.38;3.85;;;6.80;99.90;;;;;;5057008;28;20029;-66
2022/11/15 01:46:03;;;;;;;6.97;3.17;;;6.80;99.90;;;;;;5056363;28;20056;-66
2022/11/15 01:48:34;;;;;;;7.38;3.55;;;6.70;99.90;;;;;;5058688;28;20281;-66
2022/11/15 01:51:02;;;;;;;9.32;3.08;;;6.70;99.90;;;;;;5074515;28;20043;-66
2022/11/15 01:53:31;;;;;;;4.70;3.08;;;6.70;99.90;;;;;;5071200;28;20028;-66
2022/11/15 01:55:58;;;;;;;5.43;2.65;;;6.70;99.90;;;;;;5071593;28;20453;-66
2022/11/15 01:58:24;;;;;;;4.47;2.75;;;6.70;99.90;;;;;;5074686;28;20377;-65
2022/11/15 02:00:50;;;;;;;5.85;3.10;;;6.70;99.90;;;;;;5073582;28;20024;-66
2022/11/15 02:03:16;;;;;;;3.50;2.50;;;6.60;99.90;;;;;;5073280;28;20040;-65
2022/11/15 02:05:43;;;;;;;4.47;2.53;;;6.60;99.90;;;;;;5056114;28;20386;-66
2022/11/15 02:08:19;;;;;;;2.85;2.28;;;6.60;99.90;;;;;;5054819;28;20032;-66
2022/11/15 02:10:48;;;;;;;6.88;2.72;;;6.60;99.90;;;;;;5053170;28;20380;-66
2022/11/15 02:13:15;;;;;;;3.95;2.30;;;6.70;99.90;;;;;;5054524;28;20052;-66
2022/11/15 02:16:03;;;;;;;3.88;2.45;;;6.80;99.90;;;;;;5052901;28;20024;-66
2022/11/15 02:18:37;;;;;;;4.45;2.55;;;6.90;99.90;;;;;;5054297;28;20049;-66
2022/11/15 02:21:11;;;;;;;3.50;2.42;;;6.90;99.90;;;;;;5062250;28;20097;-66
2022/11/15 02:24:15;;;;;;;5.68;2.95;;;7.00;99.90;;;;;;5073565;28;20490;-66
2022/11/15 02:26:59;;;;;;;5.55;2.85;;;7.00;99.90;;;;;;5073038;28;20043;-66
2022/11/15 02:29:45;;;;;;;4.57;2.72;;;7.10;99.90;;;;;;5056603;28;20123;-66
2022/11/15 02:32:18;;;;;;;3.83;2.47;;;7.10;99.90;;;;;;5073875;28;20025;-66
2022/11/15 02:34:49;;;;;;;3.28;2.40;;;7.10;99.90;;;;;;5072611;28;20037;-65
2022/11/15 02:37:22;;;;;;;5.32;3.05;;;7.10;99.90;;;;;;5074376;28;20028;-66
2022/11/15 02:40:09;;;;;;;4.07;2.70;;;7.00;99.90;;;;;;5071860;28;20044;-66
2022/11/15 02:45:32;;;;;;;5.05;2.88;;;7.10;99.90;;;;;;5053299;28;20040;-65
2022/11/15 02:48:00;;;;;;;4.07;2.97;;;7.00;99.90;;;;;;5053771;28;20031;-66
2022/11/15 02:50:30;;;;;;;4.30;2.58;;;7.00;99.90;;;;;;5053523;28;20037;-66
2022/11/15 02:52:56;;;;;;;3.63;2.70;;;6.90;99.90;;;;;;5053292;28;20079;-66
2022/11/15 02:55:41;;;;;;;5.90;2.72;;;6.90;99.90;;;;;;5058692;28;20032;-66
2022/11/15 02:58:35;;;;;;;4.63;2.25;;;6.80;99.90;;;;;;5073958;28;20173;-65
2022/11/15 03:01:20;;;;;;;3.05;2.67;;;6.80;99.90;;;;;;5073146;28;20138;-67
2022/11/15 03:04:15;;;;;;;4.90;3.13;;;6.80;99.90;;;;;;5058845;28;20074;-65
2022/11/15 03:07:01;;;;;;;4.57;2.75;;;6.80;99.90;;;;;;5072485;28;20082;-66
2022/11/15 03:09:51;;;;;;;8.45;3.15;;;6.70;99.90;;;;;;5073990;28;20028;-66
2022/11/15 03:12:32;;;;;;;6.45;2.90;;;6.70;99.90;;;;;;5072468;28;20031;-66
2022/11/15 03:15:00;;;;;;;;;;;6.70;99.90;;;;;;5069363;28;20029;-66
2022/11/15 03:17:35;;;;;;;4.60;2.90;;;6.60;99.90;;;;;;5053087;28;19958;-66
2022/11/15 03:20:06;;;;;;;4.38;3.03;;;6.60;99.90;;;;;;5052662;28;20053;-66
2022/11/15 03:22:36;;;;;;;4.00;2.88;;;6.50;99.90;;;;;;5053123;28;20060;-67
2022/11/15 03:25:06;;;;;;;9.43;3.50;;;6.50;99.90;;;;;;5052884;28;20055;-66
2022/11/15 03:27:38;;;;;;;4.28;3.33;;;6.40;99.90;;;;;;5052648;28;20017;-69
2022/11/15 03:30:06;;;;;;;4.82;3.08;;;6.40;99.90;;;;;;5071569;28;20190;-66
2022/11/15 03:32:38;;;;;;;6.35;3.22;;;6.30;99.90;;;;;;5071221;28;20054;-68
2022/11/15 03:35:13;;;;;;;4.32;2.80;;;6.30;99.90;;;;;;5060866;28;20044;-66
2022/11/15 03:37:46;;;;;;;4.15;2.90;;;6.20;99.90;;;;;;5057658;28;20095;-66
2022/11/15 03:40:12;;;;;;;7.10;3.30;;;6.30;99.90;;;;;;5055938;28;20028;-66
2022/11/15 03:42:59;;;;;;;3.72;3.08;;;6.30;99.90;;;;;;5073937;28;20017;-66
2022/11/15 03:45:56;;;;;;;3.38;2.70;;;6.30;99.90;;;;;;5080551;28;20029;-66
2022/11/15 03:48:24;;;;;;;5.72;2.95;;;6.30;99.90;;;;;;5077054;28;20473;-66
2022/11/15 03:50:50;;;;;;;5.88;2.88;;;6.30;99.90;;;;;;5061965;28;20500;-65
2022/11/15 03:53:16;;;;;;;6.00;3.30;;;6.30;99.90;;;;;;5052644;28;20029;-65
2022/11/15 03:55:42;;;;;;;6.45;2.70;;;6.30;99.90;;;;;;5051265;28;20033;-66
2022/11/15 03:58:08;;;;;;;4.90;2.78;;;6.30;99.90;;;;;;5052644;28;20029;-66
2022/11/15 04:00:33;;;;;;;6.35;2.83;;;6.30;99.90;;;;;;5051573;28;20108;-68
2022/11/15 04:02:59;;;;;;;3.88;2.50;;;6.30;99.90;;;;;;5052340;28;20031;-66
2022/11/15 04:05:25;;;;;;;5.55;3.20;;;6.30;99.90;;;;;;5065980;28;20042;-66
2022/11/15 04:07:50;;;;;;;4.80;3.33;;;6.40;99.90;;;;;;5070700;28;20031;-66
2022/11/15 04:10:16;;;;;;;6.43;3.40;;;6.40;99.90;;;;;;5071857;28;20378;-66
2022/11/15 04:12:47;;;;;;;6.75;3.58;;;6.40;99.90;;;;;;5071380;28;20032;-66
2022/11/15 04:15:17;;;;;;;4.43;2.78;;;6.40;99.90;;;;;;5066297;28;20033;-66
2022/11/15 04:17:44;;;;;;;;;;;6.50;99.90;;;;;;5034629;28;20032;-66
2022/11/15 04:25:44;;;;;;;6.18;3.10;;;6.50;99.90;;;;;;5070759;28;20039;-66
2022/11/15 04:28:11;;;;;;;12.20;3.92;;;6.40;99.90;;;;;;5071997;28;20047;-65
2022/11/15 04:30:37;;;;;;;6.40;3.67;;;6.40;99.90;;;;;;5070965;28;20017;-66
2022/11/15 04:33:03;;;;;;;6.80;3.50;;;6.40;99.90;;;;;;5071515;28;20028;-66
2022/11/15 04:35:29;;;;;;;4.20;3.20;;;6.40;99.90;;;;;;5071484;28;20036;-65
2022/11/15 04:37:56;;;;;;;7.20;3.13;;;6.50;99.90;;;;;;5071056;28;20112;-65
2022/11/15 04:40:22;;;;;;;5.55;3.22;;;6.50;99.90;;;;;;5070029;28;20040;-65
2022/11/15 04:42:48;;;;;;;5.25;3.90;;;6.50;99.90;;;;;;5055031;28;20382;-67
2022/11/15 04:45:13;;;;;;;8.07;4.45;;;6.50;99.90;;;;;;5051373;28;20033;-67
2022/11/15 04:47:39;;;;;;;8.10;4.45;;;6.50;99.90;;;;;;5050909;28;20536;-66
2022/11/15 04:50:05;;;;;;;5.80;3.67;;;6.50;99.90;;;;;;5050990;28;20439;-67
2022/11/15 04:52:31;;;;;;;5.38;3.03;;;6.50;99.90;;;;;;5051805;28;20025;-68
2022/11/15 04:54:56;;;;;;;5.07;3.30;;;6.50;99.90;;;;;;5050356;28;20090;-68
2022/11/15 04:57:22;;;;;;;6.40;3.13;;;6.40;99.90;;;;;;5063330;28;20042;-68
2022/11/15 04:59:47;;;;;;;6.47;3.35;;;6.40;99.90;;;;;;5070360;28;20039;-68
2022/11/15 05:02:13;;;;;;;5.13;3.25;;;6.30;99.90;;;;;;5071181;28;20024;-68
2022/11/15 05:04:39;;;;;;;4.07;2.72;;;6.30;99.90;;;;;;5070138;28;20469;-66
2022/11/15 05:07:05;;;;;;;5.45;3.30;;;6.30;99.90;;;;;;5071584;28;20033;-66
2022/11/15 05:09:30;;;;;;;5.10;3.30;;;6.20;99.90;;;;;;5080614;28;20469;-68
2022/11/15 05:11:56;;;;;;;5.53;2.92;;;6.20;99.90;;;;;;5086004;28;20085;-66
2022/11/15 05:14:21;;;;;;;7.15;3.67;;;6.20;99.90;;;;;;5074839;28;20032;-68
2022/11/15 05:16:47;;;;;;;6.38;3.17;;;6.20;99.90;;;;;;5057835;28;20039;-68
2022/11/15 05:19:13;;;;;;;3.97;2.90;;;6.20;99.90;;;;;;5060448;28;20104;-66
2022/11/15 05:21:39;;;;;;;5.15;3.22;;;6.30;99.90;;;;;;5058488;28;20490;-67
2022/11/15 05:24:05;;;;;;;4.20;2.83;;;6.30;99.90;;;;;;5059405;28;20021;-68
2022/11/15 05:26:30;;;;;;;4.93;3.10;;;6.40;99.90;;;;;;5060465;28;20403;-70
2022/11/15 05:28:58;;;;;;;6.00;3.25;;;6.30;99.90;;;;;;5058415;28;20047;-68
2022/11/15 05:31:25;;;;;;;3.60;2.97;;;6.30;99.90;;;;;;5061838;28;20057;-66
2022/11/15 05:33:51;;;;;;;6.20;3.20;;;6.20;99.90;;;;;;5062185;28;20037;-67
2022/11/15 05:36:40;;;;;;;3.65;2.83;;;6.20;99.90;;;;;;5063793;28;20020;-66
2022/11/15 05:39:07;;;;;;;4.68;3.20;;;6.10;99.90;;;;;;5064716;28;20031;-66
2022/11/15 05:41:36;;;;;;;6.47;3.63;;;6.10;99.90;;;;;;5061575;28;20069;-68
2022/11/15 05:44:05;;;;;;;9.68;4.25;;;6.10;99.90;;;;;;5065966;28;20041;-67
2022/11/15 05:46:31;;;;;;;5.43;3.20;;;6.00;99.90;;;;;;5062018;28;20021;-68
2022/11/15 05:48:58;;;;;;;7.68;3.67;;;6.00;99.90;;;;;;5063976;28;20112;-67
2022/11/15 05:51:24;;;;;;;5.40;3.47;;;6.00;99.90;;;;;;5062869;28;20132;-67
2022/11/15 05:53:51;;;;;;;7.35;3.95;;;6.00;99.90;;;;;;5063790;28;20036;-65
2022/11/15 05:56:17;;;;;;;6.43;3.70;;;6.00;99.90;;;;;;5062974;28;20025;-67
2022/11/15 05:58:43;;;;;;;5.88;3.60;;;6.10;99.90;;;;;;5062785;28;20035;-67
2022/11/15 06:01:09;;;;;;;8.45;4.03;;;6.10;99.90;;;;;;5064253;28;20469;-66
2022/11/15 06:03:34;;;;;;;5.18;3.95;;;6.20;99.90;;;;;;5061941;28;20029;-69
2022/11/15 06:06:00;;;;;;;5.05;3.20;;;6.20;99.90;;;;;;5066023;28;20031;-66
2022/11/15 06:08:25;;;;;;;5.18;3.08;;;6.30;99.90;;;;;;5062513;28;20099;-66
2022/11/15 06:10:51;;;;;;;5.43;3.65;;;6.30;99.90;;;;;;5066980;28;20027;-66
2022/11/15 06:13:17;;;;;;;5.35;3.78;;;6.40;99.90;;;;;;5074885;28;20442;-66
2022/11/15 06:15:42;;;;;;;7.15;3.80;;;6.40;99.90;;;;;;5063834;28;20075;-66
2022/11/15 06:18:08;;;;;;;4.50;3.13;;;6.40;99.90;;;;;;5054538;28;20055;-65
2022/11/15 06:20:33;;;;;;;4.68;3.35;;;6.40;99.90;;;;;;5054094;28;20048;-67
2022/11/15 06:23:04;;;;;;;6.88;3.03;;;6.40;99.90;;;;;;5074354;28;20111;-66
2022/11/15 06:25:31;;;;;;;7.05;3.17;;;6.40;99.90;;;;;;5073991;28;20043;-65
2022/11/15 06:27:58;;;;;;;6.55;3.00;;;6.50;99.90;;;;;;5074432;28;20035;-65
2022/11/15 06:30:24;;;;;;;7.60;3.85;;;6.60;99.90;;;;;;5072627;28;20031;-66
2022/11/15 06:32:50;;;;;;;9.30;3.60;;;6.80;99.90;;;;;;5056559;28;20814;-65
2022/11/15 06:35:17;;;;;;;5.22;3.63;;;7.00;99.90;;;;;;5053508;28;20124;-67
2022/11/15 06:37:42;;;;;;;5.57;3.10;;;7.10;99.90;;;;;;5053554;28;20043;-67
2022/11/15 06:40:10;;;;;;;5.75;3.28;;;7.30;99.90;;;;;;5053694;28;20033;-67
2022/11/15 06:42:35;;;;;;;5.72;3.28;;;7.40;99.90;;;;;;5052874;28;20053;-69
2022/11/15 06:45:01;;;;;;;5.78;3.30;;;7.50;99.90;;;;;;5054098;28;20067;-67
2022/11/15 06:47:27;;;;;;;6.13;2.92;;;7.60;99.90;;;;;;5053926;28;20031;-67
2022/11/15 06:49:52;;;;;;;5.20;3.53;;;7.60;99.90;;;;;;5069980;28;20822;-67
2022/11/15 06:52:19;;;;;;;7.30;3.80;;;7.70;99.90;;;;;;5073934;28;20032;-66
2022/11/15 06:54:45;;;;;;;7.70;4.18;;;7.60;99.90;;;;;;5072681;28;20040;-66
2022/11/15 06:57:10;;;;;;;7.15;4.30;;;7.60;99.90;;;;;;5073899;28;20089;-67
2022/11/15 06:59:36;;;;;;;5.40;3.97;;;7.60;99.90;;;;;;5072466;28;20040;-68
2022/11/15 07:02:02;;;;;;;11.68;6.15;;;7.60;99.90;;;;;;5073678;28;20031;-66
2022/11/15 07:04:28;;;;;;;9.02;5.13;;;7.60;99.90;;;;;;5073741;28;20377;-66
2022/11/15 07:06:53;;;;;;;8.30;4.85;;;7.60;99.90;;;;;;5086126;28;20101;-67
2022/11/15 07:09:19;;;;;;;7.50;4.55;;;7.60;99.90;;;;;;5064648;28;20458;-68
2022/11/15 07:11:45;;;;;;;5.28;3.72;;;7.70;99.90;;;;;;5072116;28;20079;-67
2022/11/15 07:14:10;;;;;;;7.35;3.97;;;7.80;99.90;;;;;;5071506;28;20044;-66
2022/11/15 07:16:36;;;;;;;7.80;3.92;;;7.90;99.90;;;;;;5071334;28;20039;-67
2022/11/15 07:19:02;;;;;;;5.93;3.58;;;7.90;99.90;;;;;;5073577;28;20116;-69
2022/11/15 07:21:28;;;;;;;6.05;3.40;;;8.00;99.90;;;;;;5072623;28;20139;-65
2022/11/15 07:23:54;;;;;;;5.95;3.13;;;8.10;99.90;;;;;;5070507;28;20035;-67
2022/11/15 07:26:20;;;;;;;4.70;2.90;;;8.10;99.90;;;;;;5067163;28;20028;-67
2022/11/15 07:28:45;;;;;;;6.32;3.20;;;8.20;99.90;;;;;;5072402;28;20100;-66
2022/11/15 07:31:11;;;;;;;6.00;3.20;;;8.20;99.90;;;;;;5072413;28;20032;-66
2022/11/15 07:33:37;;;;;;;6.35;3.22;;;8.30;99.90;;;;;;5071962;28;20492;-66
2022/11/15 07:36:04;;;;;;;5.22;2.50;;;8.40;99.90;;;;;;5071941;28;20028;-66
2022/11/15 07:38:31;;;;;;;11.68;5.88;;;8.50;99.90;;;;;;5071962;28;20020;-65
2022/11/15 07:41:01;;;;;;;10.10;6.00;;;8.60;99.90;;;;;;5071319;28;20025;-65
2022/11/15 07:43:27;;;;;;;11.57;6.72;;;8.80;99.90;;;;;;5071399;28;20052;-65
2022/11/15 07:45:54;;;;;;;13.50;7.18;;;8.80;99.90;;;;;;5071075;28;20051;-65
2022/11/15 07:48:19;;;;;;;12.52;6.40;;;8.80;99.90;;;;;;5072346;28;20075;-65
2022/11/15 07:50:45;;;;;;;12.95;6.35;;;8.90;99.90;;;;;;5070856;28;20446;-65
2022/11/15 07:53:11;;;;;;;12.15;6.68;;;9.00;99.90;;;;;;5071888;28;20059;-66
2022/11/15 07:55:39;;;;;;;12.93;5.72;;;9.10;99.90;;;;;;5070500;28;20028;-65
2022/11/15 07:58:08;;;;;;;11.20;5.50;;;9.20;99.90;;;;;;5072165;28;20028;-66
2022/11/15 08:00:34;;;;;;;12.20;6.00;;;9.20;99.90;;;;;;5070212;28;20119;-67
2022/11/15 08:03:11;;;;;;;9.38;5.80;;;9.30;99.90;;;;;;5071888;28;20092;-66
2022/11/15 08:05:38;;;;;;;11.93;5.88;;;9.40;99.90;;;;;;5066727;28;20032;-66
2022/11/15 08:08:05;;;;;;;13.15;5.15;;;9.50;99.90;;;;;;5070836;28;20420;-65
2022/11/15 08:10:31;;;;;;;13.43;7.05;;;9.60;99.90;;;;;;5070647;28;20020;-66
2022/11/15 08:13:01;;;;;;;10.13;5.45;;;9.80;99.90;;;;;;5071640;28;20025;-65
2022/11/15 08:15:27;;;;;;;;;;;9.90;99.90;;;;;;5071184;28;20121;-65
2022/11/15 08:17:57;;;;;;;12.45;5.88;;;10.00;99.90;;;;;;5070138;28;20568;-65
2022/11/15 08:20:24;;;;;;;13.45;6.43;;;10.10;99.90;;;;;;5061690;28;20072;-66
2022/11/15 08:22:50;;;;;;;12.98;6.30;;;10.10;99.90;;;;;;5068649;28;20099;-65
2022/11/15 08:25:16;;;;;;;10.40;5.88;;;10.10;99.90;;;;;;5070871;28;20489;-66
2022/11/15 08:27:41;;;;;;;10.13;6.20;;;10.20;99.90;;;;;;5070093;28;20074;-66
2022/11/15 08:30:07;;;;;;;10.13;5.40;;;10.20;99.90;;;;;;5052845;28;20036;-66
2022/11/15 08:32:33;;;;;;;10.07;5.75;;;10.20;99.90;;;;;;5071049;28;20032;-67
2022/11/15 08:34:59;;;;;;;11.93;5.93;;;10.20;99.90;;;;;;5070045;28;20060;-66
2022/11/15 08:37:25;;;;;;;9.85;5.80;;;10.20;99.90;;;;;;5078610;28;20536;-66
2022/11/15 08:39:50;;;;;;;12.70;5.80;;;10.20;99.90;;;;;;5080141;28;20029;-66
2022/11/15 08:42:16;;;;;;;9.25;5.70;;;10.20;99.90;;;;;;5069283;28;20108;-66
2022/11/15 08:44:42;;;;;;;10.43;6.32;;;10.30;99.90;;;;;;5069512;28;20453;-66
2022/11/15 08:47:11;;;;;;;14.38;6.63;;;10.30;99.90;;;;;;5071115;28;20441;-66
2022/11/15 08:49:36;;;;;;;12.02;7.00;;;10.30;99.90;;;;;;5063988;28;20373;-67
2022/11/15 08:52:02;;;;;;;11.70;6.30;;;10.30;99.90;;;;;;5067578;28;20031;-66
2022/11/15 08:54:28;;;;;;;10.85;5.97;;;10.30;99.90;;;;;;5075956;28;20040;-66
2022/11/15 08:56:53;;;;;;;11.80;6.55;;;10.30;99.90;;;;;;5071097;28;20016;-66
2022/11/15 08:59:19;;;;;;;9.85;6.28;;;10.40;99.90;;;;;;5070750;28;20504;-66
2022/11/15 09:01:44;;;;;;;15.07;5.97;;;10.40;99.90;;;;;;5069662;28;20047;-66
2022/11/15 09:04:10;;;;;;;9.13;5.90;;;10.50;99.90;;;;;;5070782;28;20043;-66
2022/11/15 09:06:36;;;;;;;11.55;5.70;;;10.60;99.90;;;;;;5069116;28;20599;-66
2022/11/15 09:09:02;;;;;;;15.45;5.82;;;10.80;99.90;;;;;;5069481;28;20013;-67
2022/11/15 09:11:28;;;;;;;10.02;5.68;;;11.00;99.90;;;;;;5070127;28;20060;-66
2022/11/15 09:13:55;;;;;;;13.80;6.15;;;11.20;99.90;;;;;;5070056;28;20055;-66
2022/11/15 09:16:20;;;;;;;13.00;6.38;;;11.50;99.90;;;;;;5070023;28;20386;-66
2022/11/15 09:18:46;;;;;;;13.02;5.90;;;11.60;99.90;;;;;;5068259;28;20044;-67
2022/11/15 09:21:12;;;;;;;16.15;6.55;;;11.80;99.90;;;;;;5069733;28;20040;-67
2022/11/15 09:23:38;;;;;;;12.45;6.28;;;11.90;99.90;;;;;;5070175;28;20024;-67
2022/11/15 09:26:05;;;;;;;11.43;6.28;;;12.00;99.90;;;;;;5066228;28;20112;-66
2022/11/15 09:28:31;;;;;;;11.48;5.47;;;12.20;99.90;;;;;;5070513;28;20146;-67
2022/11/15 09:30:59;;;;;;;11.57;5.63;;;12.30;99.90;;;;;;5070045;28;20031;-65
2022/11/15 09:33:24;;;;;;;10.88;5.65;;;12.40;99.90;;;;;;5070165;28;20020;-65
2022/11/15 09:35:50;;;;;;;9.75;5.15;;;12.60;99.90;;;;;;5069153;28;20036;-65
2022/11/15 09:38:15;;;;;;;10.18;5.32;;;12.70;99.90;;;;;;5070380;28;20028;-66
2022/11/15 09:40:41;;;;;;;11.43;4.88;;;12.80;99.90;;;;;;5068613;28;20473;-66
2022/11/15 09:43:18;;;;;;;10.25;4.72;;;13.00;99.90;;;;;;5069485;28;20020;-65
2022/11/15 09:46:03;;;;;;;12.82;6.05;;;13.00;99.90;;;;;;5069122;28;20035;-66
2022/11/15 09:48:48;;;;;;;9.20;5.75;;;13.20;99.90;;;;;;5070587;28;20043;-65
2022/11/15 09:51:49;;;;;;;7.35;4.82;;;13.20;99.90;;;;;;5069929;28;20024;-67
2022/11/15 09:54:34;;;;;;;12.20;5.45;;;13.30;99.90;;;;;;5070417;28;20434;-67
2022/11/15 09:57:11;;;;;;;11.80;5.78;;;13.50;99.90;;;;;;5069668;28;20020;-67
2022/11/15 10:00:00;;;;;;;13.50;5.55;;;13.60;99.90;;;;;;5068489;28;20021;-68
2022/11/15 10:02:46;;;;;;;7.37;4.60;;;13.70;99.90;;;;;;5070147;28;20031;-67
2022/11/15 10:05:17;;;;;;;11.98;4.43;;;13.80;99.90;;;;;;5069886;28;20289;-67
2022/11/15 10:08:02;;;;;;;9.30;4.72;;;13.90;99.90;;;;;;5067042;28;20323;-65
2022/11/15 10:10:37;;;;;;;7.97;5.00;;;14.00;99.90;;;;;;5069633;28;20085;-66
2022/11/15 10:13:04;;;;;;;9.75;4.75;;;14.10;99.90;;;;;;5070131;28;20048;-65
2022/11/15 10:15:29;;;;;;;9.13;4.82;;;14.20;99.90;;;;;;5067060;28;20035;-66
2022/11/15 10:18:07;;;;;;;9.90;4.95;;;14.20;99.90;;;;;;5071502;28;20024;-65
2022/11/15 10:21:13;;;;;;;9.75;5.03;;;14.20;99.90;;;;;;5072683;28;20072;-67
2022/11/15 10:23:39;;;;;;;7.80;4.85;;;14.20;99.90;;;;;;5060139;28;20102;-66
2022/11/15 10:26:10;;;;;;;10.60;4.50;;;14.20;99.90;;;;;;5072553;28;20060;-66
2022/11/15 10:28:35;;;;;;;10.43;4.70;;;14.20;99.90;;;;;;5072647;28;20031;-67
2022/11/15 10:31:01;;;;;;;14.18;5.10;;;14.20;99.90;;;;;;5072830;28;20028;-66
2022/11/15 10:33:34;;;;;;;13.65;5.75;;;14.20;99.90;;;;;;5072694;28;20031;-66
2022/11/15 10:36:11;;;;;;;10.63;4.97;;;14.20;99.90;;;;;;5073330;28;20103;-66
2022/11/15 10:38:49;;;;;;;11.20;5.68;;;14.20;99.90;;;;;;5072481;28;20029;-66
2022/11/15 10:41:29;;;;;;;15.93;5.82;;;14.20;99.90;;;;;;5072663;28;20394;-66
2022/11/15 10:44:07;;;;;;;;;;;14.20;99.90;;;;;;5073241;28;20028;-65
2022/11/15 10:46:34;;;;;;;8.27;4.53;;;14.10;99.90;;;;;;5072623;28;19904;-68
2022/11/15 10:49:17;;;;;;;7.13;4.03;;;14.10;99.90;;;;;;5072720;28;20485;-66
2022/11/15 10:51:49;;;;;;;10.82;4.90;;;14.10;99.90;;;;;;5060681;28;20462;-66
2022/11/15 10:54:27;;;;;;;9.38;5.30;;;14.20;99.90;;;;;;5072835;28;20045;-68
2022/11/15 10:56:57;;;;;;;9.45;5.07;;;14.20;99.90;;;;;;5053896;28;20458;-67
2022/11/15 10:59:33;;;;;;;12.50;5.73;;;14.30;99.90;;;;;;5072039;28;20435;-66
2022/11/15 11:01:59;;;;;;;12.80;6.00;;;14.40;99.90;;;;;;5061964;28;20263;-66
2022/11/15 11:04:25;;;;;;;13.07;5.65;;;14.40;99.90;;;;;;5070354;28;20478;-67
2022/11/15 11:07:02;;;;;;;9.18;5.70;;;14.40;99.90;;;;;;5069969;28;20085;-71
2022/11/15 11:09:35;;;;;;;9.00;5.07;;;14.40;99.90;;;;;;5072493;28;20426;-67
2022/11/15 11:12:02;;;;;;;10.27;4.90;;;14.40;99.90;;;;;;5072406;28;20028;-67
2022/11/15 11:14:33;;;;;;;13.10;5.72;;;14.30;99.90;;;;;;5054129;28;20124;-66
2022/11/15 11:17:02;;;;;;;14.90;6.18;;;14.20;99.90;;;;;;5071169;28;20163;-66
2022/11/15 11:19:46;;;;;;;8.35;5.05;;;14.10;99.90;;;;;;5072367;28;20445;-65
2022/11/15 11:22:23;;;;;;;8.93;5.10;;;14.10;99.90;;;;;;5072817;28;20028;-67
2022/11/15 11:25:17;;;;;;;16.65;6.05;;;14.00;99.90;;;;;;5059340;28;20033;-67
2022/11/15 11:28:18;;;;;;;13.85;5.93;;;14.10;99.90;;;;;;5045074;28;20035;-69
2022/11/15 11:31:09;;;;;;;13.52;5.57;;;14.10;99.90;;;;;;5074091;28;20032;-67
2022/11/15 11:33:44;;;;;;;9.18;4.88;;;14.10;99.90;;;;;;5074481;28;20047;-67
2022/11/15 11:36:29;;;;;;;12.02;5.28;;;14.20;99.90;;;;;;5074318;28;20102;-68
2022/11/15 11:39:16;;;;;;;8.85;5.47;;;14.30;99.90;;;;;;5063249;28;20059;-76
2022/11/15 11:42:03;;;;;;;12.48;5.15;;;14.40;99.90;;;;;;5062455;28;20488;-74
2022/11/15 11:45:05;;;;;;;10.10;4.95;;;14.50;99.90;;;;;;5043440;28;20024;-77
2022/11/15 11:47:35;;;;;;;8.50;5.38;;;14.60;99.90;;;;;;5014768;28;20038;-70
2022/11/15 11:50:11;;;;;;;10.52;4.82;;;14.60;99.90;;;;;;5062468;28;20112;-68
2022/11/15 11:53:10;;;;;;;17.55;6.07;;;14.70;99.90;;;;;;5066410;28;20059;-67
2022/11/15 11:55:41;;;;;;;10.52;5.03;;;14.80;99.90;;;;;;5058991;28;20036;-68
2022/11/15 11:58:34;;;;;;;13.55;5.05;;;14.80;99.90;;;;;;5064872;28;20025;-67
2022/11/15 12:01:15;;;;;;;8.00;4.85;;;14.80;99.90;;;;;;5057383;28;20070;-66
2022/11/15 12:03:46;;;;;;;11.50;6.57;;;14.90;99.90;;;;;;5068736;28;20481;-67
2022/11/15 12:06:30;;;;;;;11.07;5.47;;;14.90;99.90;;;;;;5058472;28;20112;-67
2022/11/15 12:09:04;;;;;;;9.93;3.97;;;14.90;99.90;;;;;;5065312;28;20029;-67
2022/11/15 12:11:39;;;;;;;9.05;4.18;;;14.90;99.90;;;;;;5068149;28;20024;-66
2022/11/15 12:14:16;;;;;;;10.15;4.40;;;14.90;99.90;;;;;;5068596;28;20105;-67
2022/11/15 12:16:42;;;;;;;10.07;4.00;;;14.90;99.90;;;;;;5060767;28;20109;-68
2022/11/15 12:19:08;;;;;;;6.90;3.53;;;15.00;99.90;;;;;;5054705;28;20489;-67
2022/11/15 12:21:33;;;;;;;5.53;3.90;;;15.00;99.90;;;;;;5065216;28;20033;-69
2022/11/15 12:24:04;;;;;;;7.13;3.25;;;15.10;99.90;;;;;;5069112;28;20029;-68
2022/11/15 12:26:44;;;;;;;10.35;3.25;;;15.10;99.90;;;;;;5063634;28;20025;-67
2022/11/15 12:29:28;;;;;;;;;;;15.20;99.90;;;;;;5056201;28;20046;-68
2022/11/15 12:31:59;;;;;;;8.10;3.70;;;15.20;99.90;;;;;;5055630;28;20780;-68
2022/11/15 12:34:28;;;;;;;5.63;3.42;;;15.20;99.90;;;;;;5051622;28;20168;-68
2022/11/15 12:36:54;;;;;;;4.43;2.78;;;15.20;99.90;;;;;;5062012;28;20074;-68
2022/11/15 12:39:20;;;;;;;8.98;3.15;;;15.20;99.90;;;;;;5068228;28;20028;-70
2022/11/15 12:41:55;;;;;;;5.10;3.28;;;15.10;99.90;;;;;;5063342;28;20486;-68
2022/11/15 12:44:30;;;;;;;5.32;2.75;;;15.10;99.90;;;;;;5048094;28;20517;-68
2022/11/15 12:46:55;;;;;;;7.93;2.97;;;15.10;99.90;;;;;;5065304;28;20047;-68
2022/11/15 12:49:27;;;;;;;4.25;2.83;;;15.10;99.90;;;;;;5059486;28;20118;-69
2022/11/15 12:51:58;;;;;;;8.50;3.00;;;15.10;99.90;;;;;;5054780;28;20675;-68
2022/11/15 12:54:24;;;;;;;5.80;2.42;;;15.00;99.90;;;;;;5058816;28;20037;-68
2022/11/15 12:57:08;;;;;;;10.43;3.00;;;15.00;99.90;;;;;;5065191;28;20135;-68
2022/11/15 13:00:04;;;;;;;6.60;3.30;;;15.00;99.90;;;;;;5066202;28;20500;-69
2022/11/15 13:02:46;;;;;;;8.88;3.00;;;14.90;99.90;;;;;;5054315;28;20054;-69
2022/11/15 13:07:40;;;;;;;7.82;3.13;;;14.80;99.90;;;;;;5062466;28;20085;-68
2022/11/15 13:10:11;;;;;;;7.32;3.35;;;14.70;99.90;;;;;;5063166;28;20029;-67
2022/11/15 13:12:46;;;;;;;5.95;3.05;;;14.70;99.90;;;;;;5055536;28;20060;-68
2022/11/15 13:15:11;;;;;;;9.63;3.63;;;14.60;99.90;;;;;;5065546;28;20032;-67
2022/11/15 13:17:45;;;;;;;7.28;3.67;;;14.60;99.90;;;;;;5065186;28;20151;-68
2022/11/15 13:20:11;;;;;;;6.28;3.53;;;14.50;99.90;;;;;;5061623;28;20425;-69